Time;durP1;ratioP1;P1;durP2;ratioP2;P2;SDS_P1;SDS_P2;PMS_P1;PMS_P2;Temp;Humidity;BMP_temperature;BMP_pressure;BME280_temperature;BME280_humidity;BME280_pressure;Samples;Min_cycle;Max_cycle;Signal;HPM_P1;HPM_P2
2022/07/19 00:01:34;;;;;;;1.05;0.98;;;;;;;26.64;34.65;101280.66;5194352;28;20041;-81
2022/07/19 00:04:05;;;;;;;1.48;0.75;;;;;;;26.60;34.67;101273.84;5217871;28;20710;-81
2022/07/19 00:06:36;;;;;;;2.83;0.60;;;;;;;26.57;34.19;101274.09;5214816;28;20048;-83
2022/07/19 00:09:07;;;;;;;1.20;1.10;;;;;;;26.55;34.32;101262.63;5181777;28;20024;-81
2022/07/19 00:11:37;;;;;;;0.32;0.32;;;;;;;26.50;34.79;101267.53;5182720;28;20111;-81
2022/07/19 00:14:08;;;;;;;0.40;0.40;;;;;;;26.46;34.88;101266.94;5186571;28;20178;-82
2022/07/19 00:16:38;;;;;;;0.50;0.50;;;;;;;26.43;34.81;101264.53;5211266;28;20033;-81
2022/07/19 00:19:09;;;;;;;0.20;0.20;;;;;;;26.39;35.06;101258.56;5178574;28;20394;-85
2022/07/19 00:21:40;;;;;;;2.85;0.93;;;;;;;26.36;34.75;101256.13;5180578;28;20038;-81
2022/07/19 00:24:10;;;;;;;0.52;0.52;;;;;;;26.32;35.11;101253.84;5179058;28;20037;-85
2022/07/19 00:26:41;;;;;;;1.35;0.80;;;;;;;26.29;35.49;101251.41;5237391;28;20112;-82
2022/07/19 00:29:12;;;;;;;0.40;0.40;;;;;;;26.24;34.65;101252.66;5202582;28;20551;-82
2022/07/19 00:31:42;;;;;;;0.47;0.47;;;;;;;26.20;35.30;101253.06;5207831;28;20030;-81
2022/07/19 00:34:13;;;;;;;0.47;0.47;;;;;;;26.17;35.42;101250.63;5192620;28;20053;-85
2022/07/19 00:36:43;;;;;;;2.00;0.77;;;;;;;26.14;35.32;101256.28;5202546;28;20029;-81
2022/07/19 00:39:14;;;;;;;0.90;0.90;;;;;;;26.10;35.13;101249.44;5172722;28;20040;-82
2022/07/19 00:41:45;;;;;;;0.32;0.32;;;;;;;26.06;35.31;101260.44;5189202;28;20028;-83
2022/07/19 00:44:15;;;;;;;0.82;0.70;;;;;;;26.02;35.60;101256.28;5219780;28;20534;-81
2022/07/19 00:46:49;;;;;;;0.60;0.45;;;;;;;25.98;35.76;101256.69;5172855;28;20112;-83
2022/07/19 00:49:20;;;;;;;0.20;0.20;;;;;;;25.94;35.48;101245.34;5186203;28;20506;-84
2022/07/19 00:51:54;;;;;;;0.40;0.40;;;;;;;25.91;35.78;101254.50;5200715;28;20029;-81
2022/07/19 00:54:25;;;;;;;0.30;0.30;;;;;;;25.89;36.15;101251.09;5199945;28;20152;-82
2022/07/19 00:56:58;;;;;;;0.30;0.30;;;;;;;25.85;36.18;101246.09;5183905;28;20029;-81
2022/07/19 00:59:28;;;;;;;0.30;0.30;;;;;;;25.80;36.05;101243.81;5172899;28;20041;-81
2022/07/19 01:01:59;;;;;;;0.40;0.40;;;;;;;25.78;36.39;101245.78;5168801;28;20044;-83
2022/07/19 01:04:31;;;;;;;0.38;0.38;;;;;;;25.75;36.36;101237.97;5181465;28;20041;-82
2022/07/19 01:07:02;;;;;;;0.40;0.40;;;;;;;25.72;36.24;101243.59;5195821;28;20030;-83
2022/07/19 01:09:37;;;;;;;0.40;0.40;;;;;;;25.68;36.13;101243.00;5199015;28;20078;-81
2022/07/19 01:12:08;;;;;;;0.28;0.28;;;;;;;25.64;36.51;101233.50;5204523;28;20420;-82
2022/07/19 01:14:41;;;;;;;0.25;0.25;;;;;;;25.61;36.34;101233.75;5211399;28;20044;-81
2022/07/19 01:17:12;;;;;;;0.22;0.22;;;;;;;25.57;36.54;101238.50;5182023;28;20029;-81
2022/07/19 01:19:43;;;;;;;1.65;1.00;;;;;;;25.53;36.61;101222.78;5184277;28;20048;-81
2022/07/19 01:22:13;;;;;;;0.63;0.55;;;;;;;25.50;36.92;101233.75;5213034;28;20032;-82
2022/07/19 01:24:44;;;;;;;0.20;0.20;;;;;;;25.48;36.69;101225.00;5197887;28;20053;-80
2022/07/19 01:27:15;;;;;;;0.28;0.28;;;;;;;25.42;36.66;101224.50;5217235;28;20033;-80
2022/07/19 01:29:45;;;;;;;0.40;0.40;;;;;;;25.40;37.04;101226.50;5196698;28;20059;-80
2022/07/19 01:32:16;;;;;;;0.50;0.50;;;;;;;25.37;37.07;101224.00;5186830;28;20037;-80
2022/07/19 01:34:46;;;;;;;0.30;0.30;;;;;;;25.34;37.38;101223.41;5192531;28;20037;-79
2022/07/19 01:37:17;;;;;;;2.28;1.38;;;;;;;25.30;37.10;101222.81;5237296;28;20108;-80
2022/07/19 01:39:48;;;;;;;1.20;1.10;;;;;;;25.27;36.95;101223.06;5187970;28;20048;-81
2022/07/19 01:42:18;;;;;;;0.40;0.40;;;;;;;25.24;37.62;101218.78;5199035;28;20029;-80
2022/07/19 01:44:49;;;;;;;2.20;0.82;;;;;;;25.20;37.67;101216.47;5183646;28;20069;-80
2022/07/19 01:47:19;;;;;;;0.30;0.30;;;;;;;25.18;37.48;101215.75;5212610;28;20025;-80
2022/07/19 01:49:50;;;;;;;0.40;0.40;;;;;;;25.14;37.15;101213.31;5183163;28;20047;-80
2022/07/19 01:52:21;;;;;;;1.20;0.85;;;;;;;25.12;37.25;101211.75;5209365;28;20029;-80
2022/07/19 01:54:51;;;;;;;0.57;0.57;;;;;;;25.08;37.79;101215.66;5177103;28;20103;-80
2022/07/19 01:57:25;;;;;;;0.40;0.40;;;;;;;25.04;37.59;101209.69;5187285;28;20025;-80
2022/07/19 01:59:56;;;;;;;0.43;0.43;;;;;;;25.02;37.54;101208.94;5202876;28;20037;-80
2022/07/19 02:02:26;;;;;;;1.13;1.02;;;;;;;24.99;37.64;101206.53;5195731;28;20600;-80
2022/07/19 02:04:57;;;;;;;0.30;0.30;;;;;;;24.95;38.04;101215.78;5194481;28;20442;-80
2022/07/19 02:07:27;;;;;;;0.57;0.57;;;;;;;24.92;38.00;101207.97;5197965;28;20033;-80
2022/07/19 02:09:58;;;;;;;0.30;0.30;;;;;;;24.89;37.72;101210.91;5181037;28;20067;-80
2022/07/19 02:12:29;;;;;;;4.50;0.45;;;;;;;24.85;38.37;101213.00;5183297;28;20066;-80
2022/07/19 02:15:03;;;;;;;0.30;0.30;;;;;;;24.81;38.28;101207.03;5193642;28;20041;-82
2022/07/19 02:17:37;;;;;;;0.20;0.20;;;;;;;24.78;37.87;101209.94;5176387;28;20171;-80
2022/07/19 02:20:08;;;;;;;0.55;0.55;;;;;;;24.76;37.92;101208.38;5206071;28;20033;-80
2022/07/19 02:22:38;;;;;;;0.43;0.43;;;;;;;24.73;38.05;101212.16;5185949;28;20017;-80
2022/07/19 02:25:09;;;;;;;0.30;0.30;;;;;;;24.70;38.34;101212.38;5211043;28;20094;-80
2022/07/19 02:27:41;;;;;;;0.45;0.45;;;;;;;24.67;38.23;101207.25;5181445;28;20040;-81
2022/07/19 02:30:13;;;;;;;0.20;0.20;;;;;;;24.64;38.40;101211.00;5182753;28;20041;-80
2022/07/19 02:32:43;;;;;;;4.20;1.23;;;;;;;24.61;38.01;101207.72;5181604;28;20152;-81
2022/07/19 02:35:14;;;;;;;0.30;0.30;;;;;;;24.57;38.57;101203.56;5199386;28;20116;-80
2022/07/19 02:37:45;;;;;;;0.30;0.30;;;;;;;24.55;38.34;101205.53;5181538;28;20116;-80
2022/07/19 02:40:15;;;;;;;0.73;0.52;;;;;;;24.50;38.61;101205.88;5191785;28;20108;-80
2022/07/19 02:42:46;;;;;;;1.35;1.25;;;;;;;24.47;38.84;101206.97;5185045;28;20704;-79
2022/07/19 02:45:16;;;;;;;0.52;0.52;;;;;;;24.44;38.58;101207.22;5213307;28;20069;-80
2022/07/19 02:47:47;;;;;;;0.52;0.52;;;;;;;24.41;38.70;101199.44;5177889;28;20043;-80
2022/07/19 02:50:18;;;;;;;0.45;0.45;;;;;;;24.39;38.64;101203.19;5197081;28;20370;-80
2022/07/19 02:52:48;;;;;;;1.40;1.05;;;;;;;24.35;38.75;101199.88;5210420;28;20079;-80
2022/07/19 02:55:22;;;;;;;0.60;0.50;;;;;;;24.32;39.13;101202.81;5174175;28;20044;-80
2022/07/19 02:57:56;;;;;;;5.32;1.92;;;;;;;24.29;39.08;101195.00;5208918;28;20029;-80
2022/07/19 03:00:26;;;;;;;1.25;1.15;;;;;;;24.26;39.05;101193.44;5206752;28;20033;-80
2022/07/19 03:03:43;;;;;;;2.22;1.15;;;;;;;24.24;39.64;101202.56;5195983;28;20029;-80
2022/07/19 03:05:51;;;;;;;0.73;0.73;;;;;;;24.19;39.46;101192.19;5197462;28;20029;-80
2022/07/19 03:08:21;;;;;;;0.55;0.52;;;;;;;24.16;39.03;101208.50;5196720;28;20036;-80
2022/07/19 03:10:52;;;;;;;0.70;0.70;;;;;;;24.14;39.25;101203.28;5174039;28;20036;-80
2022/07/19 03:13:25;;;;;;;1.23;1.20;;;;;;;24.10;39.42;101198.25;5202577;28;20059;-79
2022/07/19 03:15:55;;;;;;;1.40;1.02;;;;;;;24.07;39.53;101206.53;5237014;28;20424;-80
2022/07/19 03:18:26;;;;;;;0.85;0.85;;;;;;;24.03;39.71;101200.56;5185374;28;20060;-80
2022/07/19 03:20:58;;;;;;;0.50;0.50;;;;;;;24.00;39.45;101203.50;5177077;28;20669;-80
2022/07/19 03:23:32;;;;;;;0.33;0.33;;;;;;;23.96;39.50;101202.88;5197182;28;20057;-80
2022/07/19 03:26:04;;;;;;;0.43;0.43;;;;;;;23.95;39.79;101202.97;5180191;28;20120;-80
2022/07/19 03:28:37;;;;;;;0.57;0.57;;;;;;;23.92;39.77;101208.53;5189331;28;20052;-80
2022/07/19 03:31:10;;;;;;;0.30;0.30;;;;;;;23.89;39.66;101206.94;5207530;28;20055;-80
2022/07/19 03:33:41;;;;;;;0.30;0.30;;;;;;;23.85;39.99;101211.66;5190523;28;20029;-79
2022/07/19 03:36:12;;;;;;;0.55;0.55;;;;;;;23.83;39.68;101204.72;5213049;28;20688;-80
2022/07/19 03:38:42;;;;;;;0.40;0.40;;;;;;;23.80;39.54;101192.41;5202006;28;20036;-80
2022/07/19 03:41:13;;;;;;;0.52;0.40;;;;;;;23.76;39.73;101201.66;5175203;28;21016;-80
2022/07/19 03:43:43;;;;;;;0.43;0.43;;;;;;;23.74;39.67;101198.25;5199288;28;20247;-80
2022/07/19 03:46:14;;;;;;;0.82;0.82;;;;;;;23.71;39.67;101193.13;5202202;28;20052;-79
2022/07/19 03:48:44;;;;;;;1.17;0.88;;;;;;;23.69;40.17;101195.03;5185666;28;20041;-80
2022/07/19 03:51:15;;;;;;;0.70;0.70;;;;;;;23.66;40.05;101184.59;5214743;28;20044;-80
2022/07/19 03:53:48;;;;;;;0.38;0.38;;;;;;;23.63;40.28;101190.16;5175375;28;20072;-81
2022/07/19 03:56:20;;;;;;;0.50;0.50;;;;;;;23.58;40.56;101194.06;5196599;28;20043;-80
2022/07/19 03:58:51;;;;;;;1.50;0.47;;;;;;;23.58;40.40;101195.84;5201307;28;20029;-80
2022/07/19 04:01:21;;;;;;;0.40;0.40;;;;;;;23.55;39.96;101196.94;5188311;28;20290;-81
2022/07/19 04:03:55;;;;;;;0.50;0.50;;;;;;;23.52;40.11;101193.66;5185871;28;20059;-81
2022/07/19 04:06:28;;;;;;;0.88;0.80;;;;;;;23.49;40.32;101189.38;5184720;28;20033;-80
2022/07/19 04:08:58;;;;;;;0.30;0.30;;;;;;;23.47;40.64;101201.19;5173055;28;20028;-79
2022/07/19 04:11:29;;;;;;;9.13;0.88;;;;;;;23.44;40.54;101204.06;5195098;28;20029;-80
2022/07/19 04:14:45;;;;;;;1.05;0.90;;;;;;;23.41;40.43;101197.13;5200022;28;20033;-81
2022/07/19 04:17:25;;;;;;;0.40;0.40;;;;;;;23.39;40.30;101199.06;5199421;28;20092;-82
2022/07/19 04:19:56;;;;;;;0.35;0.35;;;;;;;23.37;40.34;101196.50;5181522;28;20034;-80
2022/07/19 04:22:27;;;;;;;0.85;0.70;;;;;;;23.35;40.70;101201.09;5199198;28;20858;-82
2022/07/19 04:24:57;;;;;;;0.60;0.50;;;;;;;23.32;41.07;101201.31;5185967;28;20113;-81
2022/07/19 04:27:33;;;;;;;0.50;0.50;;;;;;;23.29;40.65;101198.88;5188564;28;20059;-81
2022/07/19 04:30:05;;;;;;;0.75;0.75;;;;;;;23.27;40.59;101196.31;5192254;28;20064;-81
2022/07/19 04:32:38;;;;;;;0.33;0.33;;;;;;;23.25;40.88;101195.59;5214950;28;20036;-81
2022/07/19 04:35:09;;;;;;;0.80;0.57;;;;;;;23.24;40.83;101204.59;5178499;28;20819;-81
2022/07/19 04:37:41;;;;;;;0.85;0.85;;;;;;;23.21;40.67;101196.75;5182406;28;20037;-81
2022/07/19 04:40:11;;;;;;;0.57;0.57;;;;;;;23.20;41.00;101203.06;5177234;28;20116;-82
2022/07/19 04:42:42;;;;;;;0.73;0.73;;;;;;;23.20;41.04;101199.56;5164354;28;20591;-81
2022/07/19 04:45:12;;;;;;;0.68;0.68;;;;;;;23.19;41.16;101203.19;5184200;28;20034;-81
2022/07/19 04:47:43;;;;;;;0.47;0.47;;;;;;;23.18;41.01;101196.97;5197447;28;20045;-80
2022/07/19 04:50:14;;;;;;;0.30;0.30;;;;;;;23.18;41.29;101196.13;5204537;28;20041;-80
2022/07/19 04:52:44;;;;;;;0.73;0.73;;;;;;;23.16;41.25;101193.53;5217259;28;20041;-80
2022/07/19 04:55:15;;;;;;;0.22;0.22;;;;;;;23.16;41.16;101196.22;5177158;28;20704;-80
2022/07/19 04:57:45;;;;;;;1.00;0.88;;;;;;;23.14;41.36;101195.47;5194411;28;20026;-80
2022/07/19 05:00:16;;;;;;;0.85;0.85;;;;;;;23.14;41.32;101190.13;5212999;28;20037;-80
2022/07/19 05:02:47;;;;;;;3.00;0.93;;;;;;;23.15;41.55;101189.16;5198668;28;20497;-80
2022/07/19 05:05:17;;;;;;;1.52;1.00;;;;;;;23.14;41.54;101187.44;5198608;28;20094;-81
2022/07/19 05:07:49;;;;;;;0.98;0.77;;;;;;;23.15;41.66;101196.31;5214765;28;20037;-82
2022/07/19 05:10:19;;;;;;;0.43;0.43;;;;;;;23.15;41.30;101189.16;5206058;28;20045;-81
2022/07/19 05:12:50;;;;;;;0.82;0.82;;;;;;;23.16;41.98;101187.31;5184516;28;20033;-81
2022/07/19 05:15:20;;;;;;;1.13;0.98;;;;;;;23.15;41.72;101190.97;5232174;28;20040;-80
2022/07/19 05:17:53;;;;;;;0.73;0.73;;;;;;;23.15;41.83;101194.50;5202468;28;20045;-80
2022/07/19 05:20:24;;;;;;;0.75;0.75;;;;;;;23.16;42.04;101193.53;5187795;28;20080;-80
2022/07/19 05:22:54;;;;;;;1.98;1.40;;;;;;;23.18;42.32;101190.78;5188779;28;20013;-80
2022/07/19 05:25:28;;;;;;;2.28;0.80;;;;;;;23.18;42.17;101202.31;5185409;28;20037;-80
2022/07/19 05:27:58;;;;;;;0.43;0.43;;;;;;;23.20;42.38;101195.06;5172492;28;20026;-80
2022/07/19 05:30:29;;;;;;;0.57;0.57;;;;;;;23.20;42.31;101197.72;5201229;28;20610;-81
2022/07/19 05:32:59;;;;;;;1.25;1.15;;;;;;;23.24;42.63;101201.03;5199706;28;20265;-81
2022/07/19 05:35:30;;;;;;;0.43;0.43;;;;;;;23.24;42.48;101199.22;5218910;28;20041;-81
2022/07/19 05:38:01;;;;;;;9.45;1.25;;;;;;;23.26;42.64;101193.75;5199720;28;20047;-81
2022/07/19 05:40:31;;;;;;;0.40;0.40;;;;;;;23.26;42.28;101199.94;5180747;28;20044;-81
2022/07/19 05:43:02;;;;;;;0.88;0.68;;;;;;;23.27;42.57;101207.00;5217397;28;20697;-81
2022/07/19 05:45:32;;;;;;;0.45;0.45;;;;;;;23.31;42.26;101201.44;5176005;28;20060;-81
2022/07/19 05:48:03;;;;;;;0.20;0.20;;;;;;;23.34;42.53;101203.91;5190991;28;20095;-81
2022/07/19 05:50:36;;;;;;;0.40;0.40;;;;;;;23.35;42.66;101208.25;5191027;28;20038;-81
2022/07/19 05:53:10;;;;;;;0.50;0.50;;;;;;;23.37;42.30;101200.97;5181427;28;20112;-81
2022/07/19 05:55:40;;;;;;;0.80;0.80;;;;;;;23.39;42.56;101209.75;5205905;28;20694;-81
2022/07/19 05:58:11;;;;;;;1.95;0.90;;;;;;;23.42;42.62;101206.88;5197742;28;20021;-82
2022/07/19 06:01:17;;;;;;;0.52;0.52;;;;;;;23.44;42.91;101206.75;5202552;28;20404;-82
2022/07/19 06:03:32;;;;;;;0.80;0.60;;;;;;;23.46;42.73;101205.66;5225142;28;20537;-81
2022/07/19 06:06:03;;;;;;;1.25;0.68;;;;;;;23.50;42.80;101211.66;5207509;28;20040;-83
2022/07/19 06:08:36;;;;;;;0.93;0.73;;;;;;;23.51;42.67;101208.84;5209639;28;20135;-81
2022/07/19 06:11:07;;;;;;;1.55;1.45;;;;;;;23.54;42.82;101207.78;5209771;28;20044;-82
2022/07/19 06:13:37;;;;;;;2.78;0.65;;;;;;;23.55;42.39;101204.97;5195162;28;20029;-82
2022/07/19 06:16:11;;;;;;;0.70;0.70;;;;;;;23.58;42.33;101203.88;5194715;28;20092;-81
2022/07/19 06:18:42;;;;;;;0.40;0.40;;;;;;;23.58;42.56;101204.75;5213088;28;20025;-83
2022/07/19 06:21:15;;;;;;;1.95;1.48;;;;;;;23.59;42.77;101210.97;5185288;28;20079;-82
2022/07/19 06:23:46;;;;;;;3.33;1.23;;;;;;;23.65;42.63;101212.34;5191931;28;20262;-81
2022/07/19 06:26:16;;;;;;;0.85;0.75;;;;;;;23.67;42.30;101210.41;5198024;28;20102;-81
2022/07/19 06:28:47;;;;;;;0.57;0.57;;;;;;;23.72;42.11;101213.56;5216888;28;20243;-80
2022/07/19 06:31:18;;;;;;;0.30;0.30;;;;;;;23.75;42.60;101213.34;5235751;28;20037;-81
2022/07/19 06:33:50;;;;;;;0.88;0.88;;;;;;;23.77;42.33;101208.72;5207301;28;20025;-81
2022/07/19 06:36:20;;;;;;;1.80;1.65;;;;;;;23.81;42.37;101215.56;5171849;28;20080;-82
2022/07/19 06:38:51;;;;;;;2.65;2.00;;;;;;;23.83;42.09;101212.75;5206376;28;20034;-81
2022/07/19 06:41:22;;;;;;;0.28;0.28;;;;;;;23.86;42.31;101216.06;5225319;28;20079;-82
2022/07/19 06:43:52;;;;;;;1.55;1.30;;;;;;;23.87;42.12;101207.06;5220605;28;20736;-82
2022/07/19 06:46:25;;;;;;;0.98;0.98;;;;;;;23.95;42.23;101211.00;5227875;28;20063;-81
2022/07/19 06:48:56;;;;;;;0.88;0.88;;;;;;;23.96;41.78;101208.22;5213694;28;20033;-82
2022/07/19 06:51:27;;;;;;;1.02;0.52;;;;;;;23.98;42.02;101208.09;5212546;28;20051;-82
2022/07/19 06:53:57;;;;;;;1.98;1.20;;;;;;;24.06;42.01;101211.06;5205431;28;20029;-82
2022/07/19 06:56:28;;;;;;;0.40;0.40;;;;;;;24.00;43.37;101208.84;5199974;28;20026;-81
2022/07/19 06:58:58;;;;;;;3.20;1.20;;;;;;;24.09;42.15;101215.31;5224606;28;20080;-82
2022/07/19 07:01:29;;;;;;;2.35;0.85;;;;;;;24.11;42.18;101216.91;5211012;28;20063;-81
2022/07/19 07:03:59;;;;;;;7.03;1.60;;;;;;;24.15;41.82;101217.53;5206609;28;20026;-82
2022/07/19 07:06:30;;;;;;;2.47;1.73;;;;;;;24.24;42.01;101221.34;5189701;28;20037;-81
2022/07/19 07:09:02;;;;;;;0.28;0.28;;;;;;;24.28;41.82;101212.94;5187982;28;20028;-82
2022/07/19 07:11:32;;;;;;;0.53;0.53;;;;;;;24.32;41.54;101218.91;5196761;28;20029;-82
2022/07/19 07:14:03;;;;;;;0.30;0.30;;;;;;;24.38;41.62;101214.91;5216327;28;20029;-81
2022/07/19 07:16:37;;;;;;;0.30;0.30;;;;;;;24.41;41.79;101218.19;5226460;28;20040;-82
2022/07/19 07:19:07;;;;;;;0.50;0.50;;;;;;;24.49;41.87;101218.44;5192498;28;20044;-81
2022/07/19 07:21:38;;;;;;;0.40;0.40;;;;;;;24.54;41.22;101217.22;5231974;28;20028;-81
2022/07/19 07:24:09;;;;;;;0.40;0.40;;;;;;;24.62;41.67;101220.16;5191944;28;20029;-81
2022/07/19 07:26:44;;;;;;;0.57;0.57;;;;;;;24.63;41.62;101211.13;5209095;28;20088;-82
2022/07/19 07:29:18;;;;;;;0.82;0.82;;;;;;;24.60;41.53;101212.25;5211326;28;20045;-81
2022/07/19 07:31:51;;;;;;;0.55;0.55;;;;;;;24.67;41.75;101210.81;5187511;28;20074;-81
2022/07/19 07:34:22;;;;;;;0.65;0.65;;;;;;;24.77;41.35;101212.75;5193099;28;20048;-82
2022/07/19 07:36:52;;;;;;;0.65;0.50;;;;;;;24.81;41.45;101209.72;5220012;28;20033;-81
2022/07/19 07:39:23;;;;;;;0.32;0.32;;;;;;;24.80;41.91;101210.69;5190508;28;20064;-80
2022/07/19 07:41:53;;;;;;;0.32;0.32;;;;;;;24.81;41.72;101208.84;5208752;28;20068;-81
2022/07/19 07:44:24;;;;;;;1.00;0.95;;;;;;;24.88;41.35;101206.53;5198997;28;20067;-79
2022/07/19 07:46:54;;;;;;;0.50;0.40;;;;;;;24.96;41.49;101206.75;5192801;28;20030;-81
2022/07/19 07:49:26;;;;;;;0.93;0.82;;;;;;;25.02;41.22;101211.63;5208168;28;20033;-80
2022/07/19 07:51:56;;;;;;;0.40;0.40;;;;;;;25.10;41.07;101209.16;5196274;28;20044;-80
2022/07/19 07:54:27;;;;;;;0.22;0.22;;;;;;;25.13;40.95;101210.75;5216269;28;20044;-80
2022/07/19 07:56:57;;;;;;;0.22;0.22;;;;;;;25.19;41.10;101204.91;5207543;28;20025;-80
2022/07/19 07:59:28;;;;;;;0.57;0.57;;;;;;;25.22;41.21;101206.47;5182621;28;20060;-82
2022/07/19 08:01:58;;;;;;;0.55;0.55;;;;;;;25.28;40.59;101195.22;5185080;28;20112;-83
2022/07/19 08:04:29;;;;;;;0.40;0.40;;;;;;;25.30;40.99;101198.66;5220389;28;20340;-83
2022/07/19 08:07:03;;;;;;;0.47;0.47;;;;;;;25.40;40.58;101188.88;5193193;28;20073;-82
2022/07/19 08:09:34;;;;;;;0.30;0.30;;;;;;;25.46;40.32;101187.50;5203316;28;20060;-83
2022/07/19 08:12:04;;;;;;;0.52;0.52;;;;;;;25.50;40.31;101193.47;5226034;28;20512;-82
2022/07/19 08:14:37;;;;;;;2.13;0.63;;;;;;;25.54;40.12;101189.56;5204426;28;20037;-82
2022/07/19 08:17:08;;;;;;;0.47;0.43;;;;;;;25.58;40.45;101182.94;5206298;28;20204;-82
2022/07/19 08:19:39;;;;;;;0.35;0.35;;;;;;;25.64;39.97;101185.13;5194826;28;20037;-83
2022/07/19 08:22:09;;;;;;;0.73;0.73;;;;;;;25.68;39.76;101180.34;5178606;28;20034;-82
2022/07/19 08:24:40;;;;;;;0.43;0.43;;;;;;;25.73;40.10;101183.50;5184906;28;20100;-82
2022/07/19 08:27:10;;;;;;;0.95;0.73;;;;;;;25.82;39.63;101177.34;5177878;28;20029;-81
2022/07/19 08:29:44;;;;;;;0.57;0.57;;;;;;;25.91;39.74;101175.69;5192141;28;20088;-82
2022/07/19 08:32:15;;;;;;;0.22;0.22;;;;;;;26.00;39.15;101179.44;5158115;28;20139;-82
2022/07/19 08:34:45;;;;;;;0.20;0.20;;;;;;;26.06;39.12;101169.03;5212971;28;20037;-83
2022/07/19 08:37:16;;;;;;;0.40;0.40;;;;;;;26.16;38.85;101162.84;5215383;28;20095;-83
2022/07/19 08:39:46;;;;;;;0.75;0.47;;;;;;;26.18;39.52;101167.16;5179452;28;20067;-81
2022/07/19 08:42:19;;;;;;;0.63;0.52;;;;;;;26.18;38.91;101164.47;5217759;28;20029;-82
2022/07/19 08:44:51;;;;;;;4.80;1.65;;;;;;;26.29;38.84;101171.59;5187122;28;20287;-83
2022/07/19 08:47:22;;;;;;;0.25;0.25;;;;;;;26.39;38.95;101166.25;5208787;28;20034;-83
2022/07/19 08:49:57;;;;;;;0.40;0.40;;;;;;;26.44;38.67;101165.84;5218971;28;20444;-82
2022/07/19 08:52:28;;;;;;;0.70;0.57;;;;;;;26.49;38.70;101164.47;5193778;28;20040;-83
2022/07/19 08:54:58;;;;;;;0.55;0.55;;;;;;;26.61;38.14;101164.38;5192038;28;20048;-82
2022/07/19 09:00:21;;;;;;;0.50;0.50;;;;;;;26.71;37.51;101159.84;5206326;28;20037;-81
2022/07/19 09:02:59;;;;;;;1.83;0.95;;;;;;;26.80;37.32;101158.22;5184002;28;20874;-83
2022/07/19 09:05:33;;;;;;;0.30;0.30;;;;;;;26.92;37.08;101158.97;5198030;28;20041;-82
2022/07/19 09:08:15;;;;;;;0.52;0.52;;;;;;;26.97;37.14;101159.38;5191941;28;20025;-82
2022/07/19 09:11:14;;;;;;;0.38;0.38;;;;;;;27.12;37.69;101154.47;5202165;28;20569;-82
2022/07/19 09:13:39;;;;;;;;;;;;;;;27.23;37.35;101151.63;5205349;28;20029;-82
2022/07/19 09:16:09;;;;;;;0.30;0.30;;;;;;;27.26;37.42;101148.66;5200234;28;20416;-82
2022/07/19 09:18:40;;;;;;;0.70;0.70;;;;;;;27.31;37.52;101148.25;5223070;28;20064;-82
2022/07/19 09:21:10;;;;;;;0.55;0.52;;;;;;;27.37;36.86;101141.44;5170249;28;20042;-82
2022/07/19 09:23:41;;;;;;;0.65;0.40;;;;;;;27.40;37.13;101144.72;5190577;28;20116;-82
2022/07/19 09:26:11;;;;;;;0.82;0.57;;;;;;;27.51;36.58;101143.75;5162853;28;20548;-82
2022/07/19 09:28:42;;;;;;;0.80;0.80;;;;;;;27.57;36.50;101140.47;5198648;28;20485;-81
2022/07/19 09:31:15;;;;;;;27.20;1.45;;;;;;;27.67;36.19;101139.59;5194839;28;20059;-81
2022/07/19 09:33:52;;;;;;;0.30;0.30;;;;;;;27.75;35.88;101145.13;5180757;28;20036;-82
2022/07/19 09:36:22;;;;;;;0.22;0.22;;;;;;;27.86;35.84;101136.91;5210566;28;20529;-83
2022/07/19 09:38:53;;;;;;;1.25;1.05;;;;;;;27.92;35.81;101139.00;5217376;28;20041;-82
2022/07/19 09:41:23;;;;;;;0.40;0.30;;;;;;;28.06;35.40;101129.63;5201071;28;20093;-82
2022/07/19 09:44:03;;;;;;;0.98;0.75;;;;;;;28.08;35.28;101126.78;5196812;28;20164;-83
2022/07/19 09:46:37;;;;;;;1.70;0.60;;;;;;;28.14;34.89;101131.59;5199610;28;20071;-81
2022/07/19 09:49:16;;;;;;;2.75;0.57;;;;;;;28.22;34.52;101133.56;5177851;28;20033;-82
2022/07/19 09:51:49;;;;;;;0.80;0.75;;;;;;;28.30;34.33;101130.13;5184024;28;20084;-82
2022/07/19 09:54:23;;;;;;;0.43;0.43;;;;;;;28.47;34.43;101128.50;5196653;28;20270;-82
2022/07/19 09:56:55;;;;;;;0.17;0.17;;;;;;;28.51;34.21;101119.09;5175404;28;20099;-82
2022/07/19 09:59:27;;;;;;;0.73;0.73;;;;;;;28.65;34.11;101125.81;5199742;28;20044;-82
2022/07/19 10:01:58;;;;;;;0.30;0.30;;;;;;;28.64;33.54;101124.13;5198965;28;20025;-82
2022/07/19 10:04:32;;;;;;;0.82;0.82;;;;;;;28.72;33.47;101132.34;5197303;28;20068;-82
2022/07/19 10:07:03;;;;;;;0.30;0.30;;;;;;;28.78;33.36;101125.50;5211890;28;20704;-81
2022/07/19 10:09:35;;;;;;;0.57;0.57;;;;;;;28.88;32.16;101120.91;5215790;28;20045;-80
2022/07/19 10:12:08;;;;;;;0.45;0.45;;;;;;;28.97;32.89;101120.00;5218426;28;20037;-82
2022/07/19 10:14:42;;;;;;;0.98;0.65;;;;;;;29.06;32.85;101123.59;5204323;28;20118;-82
2022/07/19 10:17:40;;;;;;;0.68;0.68;;;;;;;29.11;32.43;101120.44;5183346;28;20029;-81
2022/07/19 10:20:16;;;;;;;1.02;0.70;;;;;;;29.18;32.62;101113.41;5212733;28;20049;-82
2022/07/19 10:22:47;;;;;;;0.25;0.25;;;;;;;29.25;31.78;101105.56;5192345;28;20039;-82
2022/07/19 10:25:18;;;;;;;0.45;0.45;;;;;;;29.37;31.45;101101.66;5182626;28;20894;-83
2022/07/19 10:27:54;;;;;;;0.20;0.20;;;;;;;29.37;31.23;101104.38;5173249;28;20026;-82
2022/07/19 10:30:25;;;;;;;4.13;1.33;;;;;;;29.47;31.13;101102.41;5192568;28;20677;-82
2022/07/19 10:32:56;;;;;;;0.73;0.60;;;;;;;29.60;30.43;101101.16;5208593;28;20104;-82
2022/07/19 10:35:27;;;;;;;0.20;0.20;;;;;;;29.62;30.22;101101.84;5204343;28;20124;-81
2022/07/19 10:38:00;;;;;;;0.30;0.30;;;;;;;29.70;29.96;101099.22;5193460;28;20025;-81
2022/07/19 10:40:45;;;;;;;0.20;0.20;;;;;;;29.69;29.06;101092.09;5212238;28;20063;-82
2022/07/19 10:43:17;;;;;;;0.40;0.40;;;;;;;29.80;29.76;101102.63;5175389;28;20029;-82
2022/07/19 10:45:59;;;;;;;;;;;;;;;29.86;29.06;101086.78;5192599;28;20114;-81
2022/07/19 10:48:39;;;;;;;0.50;0.50;;;;;;;29.91;29.23;101079.03;5188445;28;19932;-81
2022/07/19 10:51:30;;;;;;;0.30;0.30;;;;;;;29.97;27.73;101073.88;5224406;28;20515;-81
2022/07/19 10:54:10;;;;;;;0.43;0.43;;;;;;;30.11;27.93;101075.13;5211637;28;21359;-82
2022/07/19 10:56:58;;;;;;;0.40;0.40;;;;;;;30.08;27.71;101074.63;5206652;28;20029;-82
2022/07/19 10:59:40;;;;;;;0.40;0.40;;;;;;;30.22;28.27;101065.00;5205450;28;20041;-82
2022/07/19 11:02:23;;;;;;;0.65;0.65;;;;;;;30.32;26.18;101070.31;5204386;28;20039;-81
2022/07/19 11:04:56;;;;;;;0.20;0.20;;;;;;;30.32;27.94;101062.19;5208673;28;20646;-81
2022/07/19 11:07:26;;;;;;;2.55;1.15;;;;;;;30.38;28.12;101056.13;5173905;28;20391;-82
2022/07/19 11:09:58;;;;;;;0.30;0.30;;;;;;;30.51;26.42;101058.38;5193617;28;20037;-84
2022/07/19 11:12:35;;;;;;;0.60;0.47;;;;;;;30.56;26.41;101051.47;5212343;28;20095;-82
2022/07/19 11:15:11;;;;;;;0.80;0.80;;;;;;;30.61;26.70;101051.81;5218187;28;20049;-83
2022/07/19 11:17:59;;;;;;;2.92;1.55;;;;;;;30.74;26.86;101048.63;5207077;28;20037;-81
2022/07/19 11:20:34;;;;;;;0.55;0.55;;;;;;;30.91;26.46;101049.50;5208840;28;20099;-82
2022/07/19 11:23:06;;;;;;;0.30;0.30;;;;;;;30.90;25.71;101039.69;5189959;28;20021;-82
2022/07/19 11:25:40;;;;;;;0.33;0.33;;;;;;;30.96;25.86;101035.44;5181777;28;20037;-82
2022/07/19 11:28:22;;;;;;;1.20;0.77;;;;;;;31.06;25.50;101030.72;5197647;28;20475;-82
2022/07/19 11:30:52;;;;;;;0.55;0.40;;;;;;;31.15;25.76;101028.03;5201200;28;20053;-82
2022/07/19 11:33:23;;;;;;;0.20;0.20;;;;;;;31.22;25.74;101023.63;5159748;28;20036;-81
2022/07/19 11:35:59;;;;;;;0.45;0.40;;;;;;;31.27;25.23;101029.41;5174649;28;20034;-81
2022/07/19 11:38:42;;;;;;;0.47;0.47;;;;;;;31.40;24.76;101026.16;5177227;28;20029;-82
2022/07/19 11:41:21;;;;;;;0.20;0.20;;;;;;;31.48;24.01;101019.88;5178090;28;20053;-83
2022/07/19 11:43:53;;;;;;;0.38;0.38;;;;;;;31.61;23.05;101017.44;5208063;28;20044;-83
2022/07/19 11:46:30;;;;;;;0.35;0.35;;;;;;;31.63;23.87;101010.00;5183684;28;20027;-82
2022/07/19 11:49:03;;;;;;;0.20;0.20;;;;;;;31.76;25.02;101008.66;5186887;28;20190;-81
2022/07/19 11:51:36;;;;;;;1.65;1.13;;;;;;;31.83;23.71;101005.06;5217957;28;20515;-85
2022/07/19 11:54:11;;;;;;;0.60;0.60;;;;;;;31.91;23.76;101006.91;5216520;28;20045;-81